createdAt,value
2018-04-17T00:00:19.251Z,98271.30
2018-04-17T00:02:45.530Z,98269.47
2018-04-17T00:05:11.775Z,98273.28
2018-04-17T00:07:38.015Z,98262.80
2018-04-17T00:10:04.323Z,98270.09
2018-04-17T00:12:30.587Z,98275.95
2018-04-17T00:14:56.830Z,98279.48
2018-04-17T00:17:23.098Z,98283.25
2018-04-17T00:19:49.335Z,98283.70
2018-04-17T00:22:15.570Z,98279.95
2018-04-17T00:24:41.836Z,98283.36
2018-04-17T00:27:08.096Z,98283.31
2018-04-17T00:29:34.342Z,98285.07
2018-04-17T00:32:00.634Z,98281.47
2018-04-17T00:34:26.873Z,98285.49
2018-04-17T00:36:53.123Z,98285.87
2018-04-17T00:39:19.402Z,98282.99
2018-04-17T00:41:45.667Z,98286.24
2018-04-17T00:44:11.911Z,98281.80
2018-04-17T00:46:38.171Z,98284.58
2018-04-17T00:49:04.450Z,98284.89
2018-04-17T00:51:30.691Z,98290.12
2018-04-17T00:53:59.927Z,98288.88
2018-04-17T00:56:26.168Z,98295.38
2018-04-17T00:58:52.434Z,98290.58
2018-04-17T01:01:18.766Z,98296.50
2018-04-17T01:03:45.016Z,98291.18
2018-04-17T01:06:11.267Z,98293.58
2018-04-17T01:08:37.537Z,98303.97
2018-04-17T01:11:03.790Z,98308.55
2018-04-17T01:13:30.074Z,98310.30
2018-04-17T01:15:56.384Z,98303.34
2018-04-17T01:18:22.636Z,98307.43
2018-04-17T01:20:48.908Z,98309.37
2018-04-17T01:23:15.188Z,98303.73
2018-04-17T01:25:41.440Z,98304.59
2018-04-17T01:28:07.683Z,98306.24
2018-04-17T01:30:33.983Z,98312.23
2018-04-17T01:33:00.227Z,98317.32
2018-04-17T01:35:26.517Z,98320.18
2018-04-17T01:37:52.791Z,98323.92
2018-04-17T01:40:19.047Z,98325.94
2018-04-17T01:42:45.296Z,98324.89
2018-04-17T01:45:11.599Z,98327.59
2018-04-17T01:47:37.888Z,98327.02
2018-04-17T01:50:04.139Z,98330.91
2018-04-17T01:52:30.420Z,98326.39
2018-04-17T01:54:56.695Z,98324.53
2018-04-17T01:57:22.940Z,98320.66
2018-04-17T01:59:49.203Z,98332.77
2018-04-17T02:02:15.480Z,98341.14
2018-04-17T02:04:41.751Z,98341.09
2018-04-17T02:07:08.042Z,98347.12
2018-04-17T02:09:34.282Z,98346.77
2018-04-17T02:12:00.543Z,98350.78
2018-04-17T02:14:26.802Z,98349.27
2018-04-17T02:16:53.051Z,98354.93
2018-04-17T02:19:19.323Z,98350.92
2018-04-17T02:21:45.564Z,98350.58
2018-04-17T02:24:11.799Z,98355.05
2018-04-17T02:26:38.083Z,98362.61
2018-04-17T02:29:04.327Z,98375.59
2018-04-17T02:31:30.603Z,98375.05
2018-04-17T02:33:56.860Z,98377.02
2018-04-17T02:36:23.107Z,98379.59
2018-04-17T02:38:49.371Z,98383.06
2018-04-17T02:41:15.643Z,98394.72
2018-04-17T02:43:41.924Z,98396.23
2018-04-17T02:46:08.219Z,98393.07
2018-04-17T02:48:34.464Z,98400.33
2018-04-17T02:51:00.738Z,98397.21
2018-04-17T02:53:27.007Z,98406.16
2018-04-17T02:55:53.283Z,98406.19
2018-04-17T02:58:19.537Z,98407.30
2018-04-17T03:00:45.804Z,98401.63
2018-04-17T03:03:12.066Z,98406.76
2018-04-17T03:05:38.342Z,98412.01
2018-04-17T03:08:04.642Z,98424.58
2018-04-17T03:10:30.890Z,98431.00
2018-04-17T03:12:57.160Z,98435.77
2018-04-17T03:15:23.427Z,98428.80
2018-04-17T03:17:49.706Z,98428.99
2018-04-17T03:20:16.031Z,98435.91
2018-04-17T03:22:42.284Z,98439.84
2018-04-17T03:25:08.531Z,98438.66
2018-04-17T03:27:34.807Z,98451.61
2018-04-17T03:30:01.062Z,98452.31
2018-04-17T03:32:27.352Z,98458.08
2018-04-17T03:34:53.599Z,98453.50
2018-04-17T03:37:19.834Z,98461.53
2018-04-17T03:39:46.119Z,98457.58
2018-04-17T03:42:12.383Z,98460.87
2018-04-17T03:44:38.683Z,98460.86
2018-04-17T03:47:04.922Z,98466.41
2018-04-17T03:49:31.190Z,98462.16
2018-04-17T03:51:57.467Z,98461.23
2018-04-17T03:54:23.731Z,98475.72
2018-04-17T03:56:50.008Z,98465.07
2018-04-17T03:59:16.272Z,98472.92
2018-04-17T04:01:42.530Z,98475.96
2018-04-17T04:04:08.784Z,98477.40
2018-04-17T04:06:35.044Z,98475.52
2018-04-17T04:09:01.323Z,98482.14
2018-04-17T04:11:27.568Z,98484.92
2018-04-17T04:13:53.806Z,98488.02
2018-04-17T04:16:32.231Z,98485.74
2018-04-17T04:19:10.767Z,98492.47
2018-04-17T04:21:49.468Z,98494.83
2018-04-17T04:24:28.075Z,98498.38
2018-04-17T04:26:54.383Z,98498.28
2018-04-17T04:29:20.618Z,98504.20
2018-04-17T04:31:46.899Z,98504.48
2018-04-17T04:34:13.199Z,98507.95
2018-04-17T04:36:39.433Z,98506.44
2018-04-17T04:39:05.727Z,98518.41
2018-04-17T04:41:31.967Z,98519.67
2018-04-17T04:43:58.238Z,98529.14
2018-04-17T04:46:24.480Z,98528.16
2018-04-17T04:48:50.747Z,98532.64
2018-04-17T04:51:17.025Z,98541.22
2018-04-17T04:53:43.257Z,98543.48
2018-04-17T04:56:09.538Z,98545.45
2018-04-17T04:58:35.798Z,98552.56
2018-04-17T05:01:02.029Z,98556.70
2018-04-17T05:03:28.287Z,98562.03
2018-04-17T05:05:54.574Z,98562.41
2018-04-17T05:08:20.838Z,98577.19
2018-04-17T05:10:47.096Z,98577.45
2018-04-17T05:13:13.338Z,98585.71
2018-04-17T05:15:39.604Z,98588.20
2018-04-17T05:18:05.831Z,98591.61
2018-04-17T05:20:32.121Z,98596.16
2018-04-17T05:22:58.359Z,98596.86
2018-04-17T05:25:24.599Z,98595.00
2018-04-17T05:27:50.907Z,98604.08
2018-04-17T05:30:17.147Z,98608.78
2018-04-17T05:32:43.391Z,98610.05
2018-04-17T05:35:09.659Z,98610.64
2018-04-17T05:37:35.903Z,98610.23
2018-04-17T05:40:02.180Z,98613.14
2018-04-17T05:42:28.495Z,98620.25
2018-04-17T05:44:54.764Z,98618.62
2018-04-17T05:47:21.067Z,98629.52
2018-04-17T05:49:47.295Z,98639.59
2018-04-17T05:52:13.531Z,98638.22
2018-04-17T05:54:39.799Z,98642.66
2018-04-17T05:57:06.051Z,98645.95
2018-04-17T05:59:32.319Z,98642.16
2018-04-17T06:01:58.542Z,98642.16
2018-04-17T06:04:24.811Z,98653.02
2018-04-17T06:06:51.079Z,98645.34
2018-04-17T06:09:17.325Z,98654.00
2018-04-17T06:11:43.587Z,98658.61
2018-04-17T06:14:09.847Z,98663.21
2018-04-17T06:16:36.088Z,98667.66
2018-04-17T06:19:02.380Z,98657.56
2018-04-17T06:21:28.603Z,98665.49
2018-04-17T06:23:54.878Z,98671.76
2018-04-17T06:26:21.134Z,98675.90
2018-04-17T06:28:47.362Z,98669.59
2018-04-17T06:31:13.651Z,98674.03
2018-04-17T06:33:39.920Z,98673.86
2018-04-17T06:36:06.206Z,98675.17
2018-04-17T06:38:32.447Z,98675.92
2018-04-17T06:40:58.702Z,98687.53
2018-04-17T06:43:24.979Z,98679.56
2018-04-17T06:45:51.246Z,98686.16
2018-04-17T06:48:17.515Z,98691.68
2018-04-17T06:50:43.767Z,98690.84
2018-04-17T06:53:10.002Z,98695.61
2018-04-17T06:55:36.275Z,98705.02
2018-04-17T06:58:02.592Z,98705.17
2018-04-17T07:00:28.892Z,98710.43
2018-04-17T07:02:55.118Z,98712.87
2018-04-17T07:05:21.428Z,98721.94
2018-04-17T07:07:47.663Z,98727.90
2018-04-17T07:10:13.903Z,98743.43
2018-04-17T07:12:40.199Z,98737.62
2018-04-17T07:15:06.450Z,98740.79
2018-04-17T07:17:32.705Z,98751.89
2018-04-17T07:19:58.976Z,98758.35
2018-04-17T07:22:25.210Z,98761.66
2018-04-17T07:24:51.486Z,98763.74
2018-04-17T07:27:17.747Z,98770.05
2018-04-17T07:29:43.990Z,98771.53
2018-04-17T07:32:10.260Z,98779.66
2018-04-17T07:34:36.656Z,98777.41
2018-04-17T07:37:02.827Z,98775.39
2018-04-17T07:39:29.091Z,98791.58
2018-04-17T07:41:55.367Z,98788.42
2018-04-17T07:44:21.630Z,98794.20
2018-04-17T07:47:00.182Z,98794.63
2018-04-17T07:49:26.448Z,98793.83
2018-04-17T07:51:52.710Z,98797.00
2018-04-17T07:54:18.984Z,98800.48
2018-04-17T07:56:45.214Z,98799.83
2018-04-17T07:59:11.463Z,98812.30
2018-04-17T08:01:37.723Z,98815.47
2018-04-17T08:04:03.973Z,98810.08
2018-04-17T08:06:30.227Z,98812.05
2018-04-17T08:08:56.471Z,98821.41
2018-04-17T08:11:22.707Z,98823.11
2018-04-17T08:13:48.979Z,98831.06
2018-04-17T08:16:15.215Z,98838.73
2018-04-17T08:18:41.482Z,98836.19
2018-04-17T08:21:07.718Z,98835.99
2018-04-17T08:23:33.958Z,98839.20
2018-04-17T08:26:00.215Z,98838.84
2018-04-17T08:28:26.459Z,98839.11
2018-04-17T08:30:52.722Z,98847.61
2018-04-17T08:33:18.970Z,98845.33
2018-04-17T08:35:45.204Z,98851.52
2018-04-17T08:38:12.418Z,98849.53
2018-04-17T08:40:38.688Z,98843.63
2018-04-17T08:43:04.998Z,98841.42
2018-04-17T08:45:31.258Z,98855.72
2018-04-17T08:47:57.507Z,98849.31
2018-04-17T08:50:23.785Z,98853.89
2018-04-17T08:52:50.015Z,98851.11
2018-04-17T08:55:16.279Z,98858.73
2018-04-17T08:57:42.511Z,98854.80
2018-04-17T09:00:08.815Z,98851.71
2018-04-17T09:02:35.082Z,98856.14
2018-04-17T09:05:01.347Z,98859.80
2018-04-17T09:07:27.619Z,98860.94
2018-04-17T09:09:53.871Z,98859.84
2018-04-17T09:12:20.160Z,98863.55
2018-04-17T09:14:46.423Z,98858.39
2018-04-17T09:17:12.707Z,98864.39
2018-04-17T09:19:38.933Z,98858.06
2018-04-17T09:22:05.211Z,98866.44
2018-04-17T09:24:31.454Z,98868.62
2018-04-17T09:26:57.700Z,98876.39
2018-04-17T09:29:23.995Z,98872.02
2018-04-17T09:31:50.239Z,98869.88
2018-04-17T09:34:16.489Z,98875.24
2018-04-17T09:36:42.795Z,98874.06
2018-04-17T09:39:09.039Z,98878.57
2018-04-17T09:41:35.366Z,98879.44
2018-04-17T09:44:01.623Z,98878.27
2018-04-17T09:46:27.875Z,98884.22
2018-04-17T09:48:54.132Z,98883.36
2018-04-17T09:51:20.378Z,98881.15
2018-04-17T09:53:46.659Z,98883.08
2018-04-17T09:56:12.950Z,98878.23
2018-04-17T09:58:39.195Z,98885.22
2018-04-17T10:01:11.700Z,98887.13
2018-04-17T10:03:37.982Z,98881.77
2018-04-17T10:06:04.238Z,98883.89
2018-04-17T10:08:30.515Z,98872.63
2018-04-17T10:10:56.759Z,98877.20
2018-04-17T10:13:23.038Z,98866.73
2018-04-17T10:15:49.315Z,98869.66
2018-04-17T10:18:15.616Z,98871.47
2018-04-17T10:20:41.865Z,98870.22
2018-04-17T10:23:08.116Z,98871.30
2018-04-17T10:25:34.378Z,98873.59
2018-04-17T10:28:00.619Z,98873.63
2018-04-17T10:30:26.899Z,98877.33
2018-04-17T10:32:53.154Z,98876.91
2018-04-17T10:35:19.439Z,98879.75
2018-04-17T10:37:45.712Z,98878.62
2018-04-17T10:40:11.991Z,98872.02
2018-04-17T10:42:38.267Z,98874.05
2018-04-17T10:45:04.548Z,98868.03
2018-04-17T10:47:30.811Z,98877.11
2018-04-17T10:49:57.103Z,98879.91
2018-04-17T10:52:23.365Z,98882.95
2018-04-17T10:54:49.651Z,98881.55
2018-04-17T10:57:15.891Z,98883.24
2018-04-17T10:59:42.163Z,98878.67
2018-04-17T11:02:08.435Z,98883.77
2018-04-17T11:04:34.671Z,98878.05
2018-04-17T11:07:00.967Z,98882.98
2018-04-17T11:09:27.207Z,98889.60
2018-04-17T11:11:53.452Z,98890.95
2018-04-17T11:14:19.727Z,98887.25
2018-04-17T11:16:45.974Z,98883.23
2018-04-17T11:19:12.296Z,98887.19
2018-04-17T11:21:38.543Z,98879.09
2018-04-17T11:24:04.792Z,98879.84
2018-04-17T11:26:31.059Z,98879.03
2018-04-17T11:28:57.299Z,98881.34
2018-04-17T11:31:23.607Z,98875.78
2018-04-17T11:33:49.871Z,98873.70
2018-04-17T11:36:16.144Z,98871.54
2018-04-17T11:38:42.414Z,98869.61
2018-04-17T11:41:08.663Z,98869.88
2018-04-17T11:43:34.947Z,98877.62
2018-04-17T11:46:01.224Z,98875.34
2018-04-17T11:48:27.476Z,98875.92
2018-04-17T11:50:53.756Z,98872.48
2018-04-17T11:53:19.999Z,98875.44
2018-04-17T11:55:46.279Z,98870.25
2018-04-17T11:58:12.555Z,98872.52
2018-04-17T12:00:38.826Z,98871.97
2018-04-17T12:03:05.131Z,98872.31
2018-04-17T12:05:31.422Z,98868.44
2018-04-17T12:07:57.705Z,98873.12
2018-04-17T12:10:23.989Z,98877.83
2018-04-17T12:12:50.290Z,98872.65
2018-04-17T12:15:16.559Z,98865.64
2018-04-17T12:17:42.818Z,98859.05
2018-04-17T12:20:09.101Z,98869.70
2018-04-17T12:22:35.354Z,98861.50
2018-04-17T12:25:01.619Z,98867.10
2018-04-17T12:27:27.888Z,98866.02
2018-04-17T12:29:54.155Z,98866.00
2018-04-17T12:32:20.460Z,98863.52
2018-04-17T12:34:46.699Z,98867.36
2018-04-17T12:37:12.950Z,98863.97
2018-04-17T12:39:39.223Z,98862.77
2018-04-17T12:42:05.466Z,98858.16
2018-04-17T12:44:31.747Z,98855.46
2018-04-17T12:46:58.025Z,98861.51
2018-04-17T12:49:24.314Z,98868.64
2018-04-17T12:51:50.607Z,98865.61
2018-04-17T12:54:16.847Z,98864.59
2018-04-17T12:56:43.133Z,98859.53
2018-04-17T12:59:09.383Z,98873.91
2018-04-17T13:01:35.623Z,98873.52
2018-04-17T13:04:01.909Z,98861.08
2018-04-17T13:06:28.167Z,98867.23
2018-04-17T13:08:54.447Z,98870.22
2018-04-17T13:11:20.679Z,98864.48
2018-04-17T13:13:46.943Z,98869.88
2018-04-17T13:16:13.213Z,98863.41
2018-04-17T13:18:39.464Z,98864.40
2018-04-17T13:21:05.726Z,98859.64
2018-04-17T13:23:31.984Z,98867.51
2018-04-17T13:25:58.242Z,98867.35
2018-04-17T13:28:24.550Z,98866.37
2018-04-17T13:30:50.810Z,98862.56
2018-04-17T13:33:17.084Z,98869.89
2018-04-17T13:35:43.332Z,98867.87
2018-04-17T13:38:09.580Z,98866.53
2018-04-17T13:40:35.894Z,98863.86
2018-04-17T13:43:02.188Z,98859.45
2018-04-17T13:45:28.445Z,98869.12
2018-04-17T13:47:54.706Z,98871.91
2018-04-17T13:50:20.967Z,98872.02
2018-04-17T13:52:47.223Z,98871.74
2018-04-17T13:55:13.485Z,98866.60
2018-04-17T13:57:39.715Z,98863.64
2018-04-17T14:00:05.991Z,98860.81
2018-04-17T14:02:32.235Z,98866.73
2018-04-17T14:04:58.496Z,98861.56
2018-04-17T14:07:24.765Z,98864.39
2018-04-17T14:09:51.026Z,98866.48
2018-04-17T14:12:17.310Z,98872.21
2018-04-17T14:14:43.559Z,98861.19
2018-04-17T14:17:09.805Z,98857.62
2018-04-17T14:19:36.104Z,98862.41
2018-04-17T14:22:02.351Z,98863.51
2018-04-17T14:24:28.631Z,98863.84
2018-04-17T14:26:54.919Z,98853.66
2018-04-17T14:29:21.174Z,98851.34
2018-04-17T14:31:47.439Z,98858.44
2018-04-17T14:34:13.704Z,98854.86
2018-04-17T14:36:39.992Z,98854.27
2018-04-17T14:39:06.246Z,98861.53
2018-04-17T14:41:32.486Z,98856.44
2018-04-17T14:43:58.754Z,98856.91
2018-04-17T14:46:25.031Z,98857.52
2018-04-17T14:48:51.299Z,98853.55
2018-04-17T14:51:17.530Z,98856.75
2018-04-17T14:53:43.766Z,98855.73
2018-04-17T14:56:10.031Z,98856.52
2018-04-17T14:58:36.275Z,98858.05
2018-04-17T15:01:02.547Z,98858.84
2018-04-17T15:03:28.798Z,98851.64
2018-04-17T15:05:55.088Z,98856.28
2018-04-17T15:08:21.399Z,98854.81
2018-04-17T15:10:47.647Z,98854.15
2018-04-17T15:13:13.919Z,98853.92
2018-04-17T15:15:40.171Z,98857.07
2018-04-17T15:18:06.407Z,98853.78
2018-04-17T15:20:32.691Z,98849.19
2018-04-17T15:22:58.961Z,98851.51
2018-04-17T15:25:25.259Z,98852.66
2018-04-17T15:27:51.506Z,98855.28
2018-04-17T15:30:17.756Z,98857.39
2018-04-17T15:32:44.075Z,98854.64
2018-04-17T15:35:10.371Z,98858.32
2018-04-17T15:37:36.663Z,98860.23
2018-04-17T15:40:02.963Z,98861.67
2018-04-17T15:42:30.040Z,98866.94
2018-04-17T15:44:56.339Z,98871.24
2018-04-17T15:47:22.593Z,98866.44
2018-04-17T15:49:48.867Z,98870.83
2018-04-17T15:52:15.103Z,98872.21
2018-04-17T15:54:41.343Z,98868.11
2018-04-17T15:57:07.601Z,98860.09
2018-04-17T15:59:33.899Z,98868.66
2018-04-17T16:02:00.166Z,98870.55
2018-04-17T16:04:26.411Z,98869.47
2018-04-17T16:06:52.697Z,98872.36
2018-04-17T16:09:18.988Z,98871.41
2018-04-17T16:11:45.223Z,98878.67
2018-04-17T16:14:12.081Z,98872.16
2018-04-17T16:16:38.371Z,98876.02
2018-04-17T16:19:04.627Z,98873.52
2018-04-17T16:21:30.966Z,98875.25
2018-04-17T16:23:57.205Z,98874.95
2018-04-17T16:26:23.500Z,98877.50
2018-04-17T16:28:49.751Z,98888.12
2018-04-17T16:31:16.000Z,98883.44
2018-04-17T16:33:42.275Z,98888.91
2018-04-17T16:36:08.552Z,98877.92
2018-04-17T16:38:34.827Z,98881.30
2018-04-17T16:41:01.120Z,98884.09
2018-04-17T16:43:27.351Z,98883.55
2018-04-17T16:45:53.619Z,98886.30
2018-04-17T16:48:19.875Z,98884.66
2018-04-17T16:50:46.150Z,98881.13
2018-04-17T16:53:12.393Z,98882.70
2018-04-17T16:55:38.658Z,98885.02
2018-04-17T16:58:04.919Z,98886.95
2018-04-17T17:00:31.171Z,98887.89
2018-04-17T17:02:57.445Z,98890.97
2018-04-17T17:05:23.726Z,98897.13
2018-04-17T17:07:49.940Z,98899.56
2018-04-17T17:10:16.227Z,98897.75
2018-04-17T17:12:42.460Z,98899.82
2018-04-17T17:15:08.751Z,98900.33
2018-04-17T17:17:34.989Z,98901.09
2018-04-17T17:20:01.267Z,98904.42
2018-04-17T17:22:27.519Z,98907.23
2018-04-17T17:24:53.759Z,98915.41
2018-04-17T17:27:20.051Z,98913.70
2018-04-17T17:29:46.307Z,98919.46
2018-04-17T17:32:12.547Z,98924.25
2018-04-17T17:34:38.810Z,98926.76
2018-04-17T17:37:05.060Z,98934.55
2018-04-17T17:39:31.291Z,98928.50
2018-04-17T17:41:57.547Z,98936.00
2018-04-17T17:44:23.782Z,98937.73
2018-04-17T17:46:50.060Z,98938.95
2018-04-17T17:49:16.354Z,98941.07
2018-04-17T17:51:42.639Z,98942.80
2018-04-17T17:54:08.879Z,98947.96
2018-04-17T17:56:35.184Z,98949.96
2018-04-17T17:59:01.460Z,98951.29
2018-04-17T18:01:27.804Z,98953.11
2018-04-17T18:03:54.071Z,98962.89
2018-04-17T18:06:20.312Z,98962.94
2018-04-17T18:08:46.584Z,98963.13
2018-04-17T18:11:12.855Z,98970.44
2018-04-17T18:13:39.124Z,98967.67
2018-04-17T18:16:05.360Z,98975.61
2018-04-17T18:18:31.630Z,98979.32
2018-04-17T18:20:57.897Z,98982.66
2018-04-17T18:23:24.137Z,98982.05
2018-04-17T18:25:50.418Z,98990.09
2018-04-17T18:28:16.656Z,98998.77
2018-04-17T18:30:42.911Z,99003.28
2018-04-17T18:33:09.194Z,99001.67
2018-04-17T18:35:35.448Z,99005.03
2018-04-17T18:38:01.752Z,99008.70
2018-04-17T18:40:28.001Z,99018.28
2018-04-17T18:42:54.231Z,99013.64
2018-04-17T18:45:20.511Z,99023.75
2018-04-17T18:47:46.761Z,99016.92
2018-04-17T18:50:13.051Z,99022.20
2018-04-17T18:52:39.314Z,99018.63
2018-04-17T18:55:05.551Z,99023.95
2018-04-17T18:57:31.825Z,99030.71
2018-04-17T18:59:58.059Z,99028.13
2018-04-17T19:02:24.329Z,99031.06
2018-04-17T19:04:50.624Z,99030.52
2018-04-17T19:07:16.900Z,99032.42
2018-04-17T19:09:43.155Z,99040.25
2018-04-17T19:12:09.397Z,99039.77
2018-04-17T19:14:35.691Z,99046.12
2018-04-17T19:17:01.954Z,99043.38
2018-04-17T19:19:28.199Z,99047.39
2018-04-17T19:21:54.459Z,99046.49
2018-04-17T19:24:20.703Z,99054.35
2018-04-17T19:26:46.966Z,99062.94
2018-04-17T19:29:13.215Z,99058.02
2018-04-17T19:31:39.455Z,99065.13
2018-04-17T19:34:05.751Z,99066.17
2018-04-17T19:36:31.980Z,99073.81
2018-04-17T19:38:58.256Z,99081.66
2018-04-17T19:41:24.511Z,99075.17
2018-04-17T19:43:50.756Z,99081.23
2018-04-17T19:46:17.013Z,99078.47
2018-04-17T19:48:43.247Z,99083.90
2018-04-17T19:51:09.520Z,99084.36
2018-04-17T19:53:36.945Z,99090.14
2018-04-17T19:56:03.227Z,99092.85
2018-04-17T19:58:29.495Z,99086.76
2018-04-17T20:00:55.735Z,99088.76
2018-04-17T20:03:21.999Z,99083.72
2018-04-17T20:05:48.235Z,99087.63
2018-04-17T20:08:14.495Z,99087.50
2018-04-17T20:10:40.770Z,99090.78
2018-04-17T20:13:07.007Z,99093.95
2018-04-17T20:15:33.278Z,99092.17
2018-04-17T20:17:59.516Z,99098.78
2018-04-17T20:20:25.759Z,99097.56
2018-04-17T20:22:52.040Z,99100.22
2018-04-17T20:25:18.279Z,99102.45
2018-04-17T20:27:44.534Z,99099.89
2018-04-17T20:30:10.779Z,99097.75
2018-04-17T20:32:37.006Z,99095.98
2018-04-17T20:35:03.284Z,99096.52
2018-04-17T20:37:29.523Z,99093.20
2018-04-17T20:39:55.831Z,99097.79
2018-04-17T20:42:22.297Z,99098.72
2018-04-17T20:44:48.558Z,99106.39
2018-04-17T20:47:14.835Z,99102.89
2018-04-17T20:49:41.063Z,99103.13
2018-04-17T20:52:07.355Z,99101.20
2018-04-17T20:54:33.618Z,99106.95
2018-04-17T20:56:59.898Z,99106.02
2018-04-17T20:59:26.155Z,99108.11
2018-04-17T21:01:52.399Z,99108.81
2018-04-17T21:04:18.663Z,99112.78
2018-04-17T21:06:44.895Z,99109.22
2018-04-17T21:09:11.150Z,99102.94
2018-04-17T21:11:37.439Z,99104.50
2018-04-17T21:14:03.702Z,99107.43
2018-04-17T21:16:29.992Z,99111.39
2018-04-17T21:18:56.258Z,99111.69
2018-04-17T21:21:22.524Z,99108.68
2018-04-17T21:23:48.786Z,99115.11
2018-04-17T21:26:15.027Z,99115.23
2018-04-17T21:28:41.263Z,99112.55
2018-04-17T21:31:07.532Z,99113.46
2018-04-17T21:33:33.767Z,99113.56
2018-04-17T21:36:00.075Z,99119.88
2018-04-17T21:38:26.315Z,99119.59
2018-04-17T21:40:52.551Z,99124.13
2018-04-17T21:43:19.655Z,99129.56
2018-04-17T21:45:45.920Z,99129.56
2018-04-17T21:48:12.155Z,99130.95
2018-04-17T21:50:38.421Z,99133.88
2018-04-17T21:53:04.655Z,99135.95
2018-04-17T21:55:30.886Z,99126.69
2018-04-17T21:57:57.926Z,99128.66
2018-04-17T22:00:24.172Z,99130.13
2018-04-17T22:02:50.450Z,99138.47
2018-04-17T22:05:16.683Z,99139.77
2018-04-17T22:07:42.927Z,99144.72
2018-04-17T22:10:09.205Z,99145.05
2018-04-17T22:12:35.426Z,99142.81
2018-04-17T22:15:01.690Z,99138.92
2018-04-17T22:17:27.915Z,99146.05
2018-04-17T22:19:54.191Z,99139.61
2018-04-17T22:22:20.488Z,99146.73
2018-04-17T22:24:46.775Z,99152.81
2018-04-17T22:27:13.055Z,99159.62
2018-04-17T22:29:39.299Z,99160.63
2018-04-17T22:32:05.535Z,99165.77
2018-04-17T22:34:31.789Z,99161.42
2018-04-17T22:36:58.058Z,99174.72
2018-04-17T22:39:24.362Z,99175.85
2018-04-17T22:41:50.631Z,99180.73
2018-04-17T22:44:16.899Z,99172.55
2018-04-17T22:46:43.199Z,99175.38
2018-04-17T22:49:09.459Z,99178.84
2018-04-17T22:51:35.762Z,99176.72
2018-04-17T22:54:02.036Z,99177.94
2018-04-17T22:56:28.323Z,99191.00
2018-04-17T22:58:54.643Z,99191.44
2018-04-17T23:01:20.903Z,99195.22
2018-04-17T23:03:47.156Z,99193.04
2018-04-17T23:06:13.403Z,99197.81
2018-04-17T23:08:39.656Z,99191.58
2018-04-17T23:11:05.922Z,99192.28
2018-04-17T23:13:32.162Z,99206.92
2018-04-17T23:15:58.454Z,99203.06
2018-04-17T23:18:24.707Z,99213.02
2018-04-17T23:20:50.942Z,99207.22
2018-04-17T23:23:17.213Z,99209.33
2018-04-17T23:25:43.454Z,99208.00
2018-04-17T23:28:09.719Z,99207.86
2018-04-17T23:30:35.965Z,99199.30
2018-04-17T23:33:02.227Z,99205.08
2018-04-17T23:35:28.487Z,99201.19
2018-04-17T23:37:54.731Z,99204.80
2018-04-17T23:40:21.038Z,99210.28
2018-04-17T23:42:47.283Z,99213.27
2018-04-17T23:45:13.542Z,99212.59
2018-04-17T23:47:39.808Z,99211.77
2018-04-17T23:50:06.056Z,99210.68
2018-04-17T23:52:32.331Z,99215.32
2018-04-17T23:54:58.575Z,99208.98
2018-04-17T23:57:24.815Z,99209.13
2018-04-17T23:59:51.084Z,99207.84
